Detalii statie AGRONICOLESCU [00001CFA]

Toti senzorii

Date Temperatura solului [C]Precipitatii [mm]Voltaj baterie [mV]Leaf Wetness [Min]HC Air temperature [C]HC Relative humidity [%]Punctul de roua [C]
medieminmaxsumaultimatimpmedieminmaxmediemediemin
2020-01-21 22:00:00 0 7030 -0.81 -1.09 -0.45 0 0 0
2020-01-21 23:00:00 0 7020 -1.49 -2.13 -0.41 0 0 0
2020-01-22 00:00:00 0 7010 -1.32 -1.55 -1.09 0 0 0
2020-01-22 01:00:00 0 7000 -1.38 -2.14 -1.11 0 0 0
2020-01-22 02:00:00 0 7000 -2.63 -2.98 -1.98 0 0 0
2020-01-22 03:00:00 0 6992 -2.95 -3.58 -2.1 0 0 0
2020-01-22 04:00:00 0 6982 -2.82 -3.19 -2.46 0 0 0
2020-01-22 05:00:00 0 6982 -3.31 -3.83 -3.05 0 0 0
2020-01-22 06:00:00 0 6962 -3.54 -3.83 -3.28 0 0 0
2020-01-22 07:00:00 0 6972 -3.55 -3.7 -3.43 0 0 0
2020-01-22 08:00:00 0 6972 -3.52 -3.8 -3.22 0 0 0
2020-01-22 09:00:00 0 7402 -2.7 -3.41 -2.01 0 0 0
2020-01-22 10:00:00 0 7412 -0.28 -1.75 1.16 0 0 0
2020-01-22 11:00:00 0 7420 2.49 1.23 3.68 0 0 0
2020-01-22 12:00:00 0 7412 4.67 3.65 5.98 0 0 0
2020-01-22 13:00:00 0 7402 6.8 5.85 8.1 0 0 0
2020-01-22 14:00:00 0 7412 8.53 8.31 8.83 0 0 0
2020-01-22 15:00:00 0 7402 9.04 8.72 9.63 0 0 0
2020-01-22 16:00:00 0 7392 7.59 6.61 8.44 0 0 0
2020-01-22 17:00:00 0 7206 5.57 4.83 6.29 0 0 0
2020-01-22 18:00:00 0 7118 4.22 3.59 4.77 0 0 0
2020-01-22 19:00:00 0 7088 3.28 2.77 3.71 0 0 0
2020-01-22 20:00:00 0 7060 1.28 1.08 2.13 0 0 0
2020-01-22 21:00:00 0 7040 0.81 0.5 1.31 0 0 0
2020-01-22 22:00:00 0 7020 -0.01 -0.7 1.03 0 0 0
2020-01-22 23:00:00 0 7020 5.08 2.24 5.77 0 0 0
2020-01-23 00:00:00 0 7020 5.91 5.51 6.33 0 0 0
2020-01-23 01:00:00 0 7000 4.62 4.1 5.36 0 0 0
2020-01-23 02:00:00 0 7000 2.99 1.75 4.05 0 0 0
2020-01-23 03:00:00 0 6992 2.02 1.81 2.34 0 0 0
2020-01-23 04:00:00 0 6982 2.05 1.11 3.23 0 0 0
2020-01-23 05:00:00 0 6972 0.25 -0.64 0.54 0 0 0
2020-01-23 06:00:00 0 6962 -0.11 -0.81 0.63 0 0 0
2020-01-23 07:00:00 0 6962 0.01 -0.64 0.79 0 0 0
2020-01-23 08:00:00 0 6962 0.95 0.64 1.34 0 0 0
2020-01-23 09:00:00 0 7264 1.93 1.34 2.71 0 0 0
2020-01-23 10:00:00 0 7412 3.35 1.78 4.77 0 0 0
2020-01-23 11:00:00 0 7412 5.46 4.81 5.88 0 0 0
2020-01-23 12:00:00 0 7412 6.13 5.83 6.61 0 0 0
2020-01-23 13:00:00 0 7402 6.36 6.04 6.64 0 0 0
2020-01-23 14:00:00 0 7412 6.71 6.27 7.22 0 0 0
2020-01-23 15:00:00 0 7412 6.37 6.13 6.7 0 0 0
2020-01-23 16:00:00 0 7402 5.76 5.41 6.15 0 0 0
2020-01-23 17:00:00 0 7206 4.42 3.38 5.22 0 0 0
2020-01-23 18:00:00 0 7128 3.23 2.71 3.83 0 0 0
2020-01-23 19:00:00 0 7080 1.38 0.09 2.84 0 0 0
2020-01-23 20:00:00 0 7060 1.46 -0.54 2.58 0 0 0
2020-01-23 21:00:00 0 7050 -0.25 -1.39 0.85 0 0 0